Latest Weather Observations for Mount Read

IDT60801

Issued at 9:05 pm EDT Thursday 27 November 2014 (issued every 30 minutes, with the page automatically refreshed every 10 minutes)

About weather observations | Map of weather stations | Latest weather observations for TAS | Other Formats
Station Details ID: 097085 Name: MOUNT READ Lat: -41.84 Lon: 145.54 Height: 1119.5 m
Data from the previous 72 hours. | See also: Recent months at Mount Read
Date/Time
EDT
Temp
°C
App
Temp
°C
Dew
Point
Rel
Hum
%
Delta-T
°C
Wind Press
QNH
hPa
Press
MSL
hPa
Rain
since 9 am
mm
Dir
 
Spd
km/h
Gust
km/h
Spd
kts
Gust
kts
27/09:00pm 4.8 2.2 3.0 88 0.8 SE 6 9 3 5 1023.4 1023.3 0.0
27/08:30pm 4.9 1.5 4.0 94 0.4 S 11 15 6 8 1023.1 1023.1 0.0
27/08:00pm 5.1 1.8 4.4 95 0.3 S 11 15 6 8 1023.4 1023.3 0.0
27/07:30pm 5.5 0.7 4.6 94 0.4 S 19 24 10 13 1023.1 1023.1 0.0
27/07:00pm 6.2 0.4 4.5 89 0.8 S 24 30 13 16 1023.1 1023.1 0.0
27/06:30pm 6.6 -0.4 4.3 85 1.1 S 30 35 16 19 1023.1 1023.1 0.0
27/06:00pm 6.9 0.3 4.2 83 1.2 S 28 37 15 20 1023.1 1023.1 0.0
27/05:30pm 7.1 -0.2 4.4 83 1.3 S 32 39 17 21 1023.1 1023.1 0.0
27/05:00pm 7.2 0.6 4.0 80 1.5 S 28 37 15 20 1023.4 1023.3 0.0
27/04:30pm 7.7 0.5 5.0 83 1.3 SSW 32 41 17 22 1023.4 1023.3 0.0
27/04:00pm 7.9 0.6 4.7 80 1.5 S 32 44 17 24 1023.4 1023.3 0.0
27/03:30pm 7.4 0.1 4.4 81 1.4 S 32 44 17 24 1023.7 1023.7 0.0
27/03:00pm 7.7 0.7 4.1 78 1.7 S 30 41 16 22 1023.8 1023.8 0.0
27/02:30pm 7.5 0.0 4.5 81 1.4 SSW 33 44 18 24 1023.7 1023.7 0.0
27/02:00pm 6.8 -0.7 4.6 86 1.0 SSW 33 44 18 24 1023.8 1023.8 0.0
27/01:30pm 7.3 -0.1 5.0 85 1.1 SSW 33 46 18 25 1024.0 1024.0 0.0
27/01:00pm 7.3 -0.1 4.8 84 1.2 SSW 33 44 18 24 1023.7 1023.7 0.0
27/12:30pm 6.9 -0.3 5.2 89 0.8 SSW 32 46 17 25 1023.6 1023.5 0.0
27/12:14pm 6.1 -0.8 4.6 90 0.7 S 30 48 16 26 1023.6 1023.5 0.0
27/12:00pm 5.8 -1.0 5.1 95 0.3 SSW 30 39 16 21 1023.6 1023.5 0.0
27/11:30am 5.3 -1.5 5.2 99 0.0 SSW 30 37 16 20 1023.6 1023.5 0.0
27/11:00am 4.4 -2.2 4.3 99 0.0 S 28 41 15 22 1023.7 1023.7 0.0
27/10:30am 3.4 -4.1 3.3 99 0.0 SSW 32 41 17 22 1023.9 1023.9 0.0
27/10:00am 2.9 -4.0 2.8 99 0.0 SSW 28 39 15 21 1023.7 1023.7 0.0
27/09:30am 2.5 -5.2 2.4 99 0.0 S 32 41 17 22 1023.7 1023.7 0.0
27/09:00am 1.9 -6.1 1.8 99 0.0 S 33 44 18 24 1023.5 1023.4 2.0
27/08:30am 1.9 -5.5 1.8 99 0.0 SSW 30 41 16 22 1023.2 1023.2 2.0
27/08:00am 1.7 -5.4 1.6 99 0.0 S 28 35 15 19 1022.9 1022.9 2.0
27/07:30am 1.4 -6.5 1.3 99 0.0 S 32 43 17 23 1022.5 1022.4 2.0
27/07:00am 0.7 -7.5 0.6 99 0.0 S 33 41 18 22 1022.0 1021.9 2.0
27/06:30am 0.8 -8.1 0.7 99 0.0 S 37 46 20 25 1021.7 1021.6 2.0
27/06:00am 0.9 -7.0 0.8 99 0.0 S 32 41 17 22 1021.6 1021.5 2.0
27/05:30am 0.7 -6.5 0.6 99 0.0 S 28 35 15 19 1021.5 1021.4 2.0
27/05:00am 0.6 -7.0 0.5 99 0.0 SSW 30 35 16 19 1021.2 1021.1 2.0
27/04:30am 0.8 -7.2 0.7 99 0.0 SSW 32 39 17 21 1021.1 1021.0 2.0
27/04:00am 0.9 -7.0 0.8 99 0.0 SSW 32 37 17 20 1020.8 1020.7 1.8
27/03:30am 0.9 -6.7 0.8 99 0.0 SSW 30 37 16 20 1020.9 1020.8 1.8
27/03:00am 1.0 -7.1 0.9 99 0.0 S 33 41 18 22 1020.7 1020.6 1.8
27/02:30am 1.1 -6.8 1.0 99 0.0 S 32 37 17 20 1020.7 1020.6 1.8
27/02:00am 1.3 -6.6 1.2 99 0.0 SSW 32 41 17 22 1020.7 1020.6 1.8
27/01:30am 1.1 -7.0 1.0 99 0.0 SSW 33 39 18 21 1020.8 1020.7 1.8
27/01:00am 1.1 -6.8 1.0 99 0.0 S 32 39 17 21 1020.9 1020.8 1.8
27/12:30am 1.5 -6.9 1.4 99 0.0 S 35 43 19 23 1021.0 1020.9 1.8
27/12:00am 1.6 -5.9 1.5 99 0.0 S 30 35 16 19 1021.0 1020.9 1.6
 
Date/Time
EDT
Temp
°C
App
Temp
°C
Dew
Point
Rel
Hum
%
Delta-T
°C
Wind Press
QNH
hPa
Press
MSL
hPa
Rain
since 9 am
mm
Dir
 
Spd
km/h
Gust
km/h
Spd
kts
Gust
kts
26/11:30pm 1.6 -6.4 1.5 99 0.0 S 33 44 18 24 1021.1 1021.0 1.6
26/11:00pm 1.7 -6.7 1.6 99 0.0 S 35 46 19 25 1021.0 1020.9 1.6
26/10:30pm 1.7 -6.7 1.6 99 0.0 SSW 35 44 19 24 1020.8 1020.7 1.6
26/10:00pm 1.6 -7.9 1.5 99 0.0 SSW 41 48 22 26 1020.6 1020.5 1.6
26/09:30pm 1.7 -7.1 1.6 99 0.0 SSW 37 46 20 25 1020.3 1020.2 1.6
26/09:00pm 1.5 -6.9 1.4 99 0.0 SSW 35 43 19 23 1020.0 1019.9 1.6
26/08:30pm 1.3 -7.9 1.2 99 0.0 SSW 39 50 21 27 1019.8 1019.7 1.6
26/08:00pm 1.9 -6.5 1.8 99 0.0 SSW 35 48 19 26 1019.6 1019.4 1.6
26/07:30pm 2.1 -7.4 2.0 99 0.0 SSW 41 52 22 28 1019.2 1019.1 1.6
26/07:00pm 2.3 -7.1 2.2 99 0.0 SSW 41 50 22 27 1018.9 1018.7 1.6
26/06:30pm 2.3 -6.7 2.2 99 0.0 SSW 39 50 21 27 1018.6 1018.4 1.6
26/06:00pm 2.7 -6.3 2.6 99 0.0 SW 39 48 21 26 1018.2 1018.1 1.6
26/05:30pm 2.9 -6.0 2.8 99 0.0 SW 39 46 21 25 1018.2 1018.1 1.6
26/05:00pm 3.1 -5.4 3.0 99 0.0 SW 37 46 20 25 1018.2 1018.1 1.6
26/04:30pm 2.7 -7.0 2.6 99 0.0 SW 43 52 23 28 1017.8 1017.6 1.6
26/04:00pm 3.2 -4.4 3.1 99 0.0 SSW 32 44 17 24 1018.1 1017.9 1.6
26/03:30pm 2.9 -4.7 2.8 99 0.0 SSW 32 48 17 26 1017.8 1017.6 1.6
26/03:00pm 3.0 -5.5 2.9 99 0.0 SW 37 52 20 28 1017.7 1017.5 1.4
26/02:30pm 3.3 -5.6 3.2 99 0.0 SW 39 48 21 26 1017.4 1017.3 1.4
26/02:00pm 3.5 -4.2 3.4 99 0.0 SSW 33 48 18 26 1017.4 1017.3 1.4
26/01:38pm 3.4 -4.7 3.3 99 0.0 SW 35 54 19 29 1017.3 1017.1 1.4
26/01:30pm 3.4 -5.8 3.3 99 0.0 SW 41 54 22 29 1017.1 1016.9 1.4
26/01:00pm 2.8 -5.4 2.7 99 0.0 SSW 35 48 19 26 1017.1 1016.9 1.4
26/12:39pm 2.3 -6.0 2.2 99 0.0 SSW 35 56 19 30 1016.8 1016.6 1.4
26/12:30pm 2.6 -6.4 2.5 99 0.0 SSW 39 52 21 28 1016.7 1016.5 1.4
26/12:06pm 2.9 -4.3 2.8 99 0.0 SW 30 52 16 28 1016.3 1016.1 1.2
26/12:00pm 3.5 -2.9 3.4 99 0.0 SW 26 43 14 23 1016.4 1016.2 1.0
26/11:30am 2.8 -5.4 2.7 99 0.0 SW 35 46 19 25 1016.1 1015.9 0.8
26/11:04am 2.6 -5.3 2.5 99 0.0 SW 33 56 18 30 1015.8 1015.5 0.8
26/11:00am 2.8 -4.8 2.7 99 0.0 SSW 32 44 17 24 1015.9 1015.7 0.6
26/10:30am 2.5 -4.4 2.4 99 0.0 SW 28 48 15 26 1015.8 1015.5 0.0
26/10:00am 2.5 -5.8 2.4 99 0.0 SW 35 46 19 25 1015.4 1015.2 0.0
26/09:30am 2.0 -6.3 1.9 99 0.0 SW 35 61 19 33 1015.2 1015.0 0.0
26/09:00am 1.9 -6.5 1.8 99 0.0 SW 35 54 19 29 1014.7 1014.4 29.2
26/08:57am 2.0 -5.4 1.9 99 0.0 SW 30 54 16 29 1014.7 1014.4 29.2
26/08:30am 1.9 -6.5 1.8 99 0.0 SW 35 48 19 26 1014.3 1014.1 28.8
26/08:00am 1.8 -7.7 1.7 99 0.0 SW 41 52 22 28 1014.0 1013.7 28.4
26/07:30am 1.6 -7.6 1.5 99 0.0 SW 39 54 21 29 1013.7 1013.4 28.2
26/07:00am 1.8 -7.3 1.7 99 0.0 WSW 39 59 21 32 1013.3 1013.0 28.2
26/06:52am 1.9 -6.5 1.8 99 0.0 WSW 35 59 19 32 1013.4 1013.1 28.2
26/06:30am 2.2 -6.9 2.1 99 0.0 WSW 39 54 21 29 1013.2 1012.9 28.0
26/06:00am 2.6 -6.0 2.5 99 0.0 WSW 37 50 20 27 1013.0 1012.7 28.0
26/05:30am 3.0 -5.5 2.9 99 0.0 SW 37 48 20 26 1012.7 1012.3 27.6
26/05:00am 3.1 -6.2 3.0 99 0.0 WSW 41 57 22 31 1012.2 1011.9 27.2
26/04:30am 3.4 -5.5 3.3 99 0.0 WSW 39 52 21 28 1012.0 1011.7 26.8
26/04:00am 3.4 -6.2 3.3 99 0.0 WSW 43 63 23 34 1011.5 1011.2 26.2
26/03:59am 3.5 -5.7 3.4 99 0.0 WSW 41 59 22 32 1011.6 1011.3 26.2
26/03:38am 4.1 -3.5 4.0 99 0.0 SW 33 46 18 25 1011.9 1011.5 25.0
26/03:30am 4.6 -3.6 4.5 99 0.0 W 37 61 20 33 1011.9 1011.5 24.6
26/03:15am 4.6 -5.0 4.5 99 0.0 WNW 44 65 24 35 1011.4 1011.1 23.6
26/03:00am 4.7 -6.0 4.6 99 0.0 W 50 67 27 36 1011.4 1011.1 22.6
26/02:33am 4.7 -5.2 4.6 99 0.0 W 46 69 25 37 1011.5 1011.2 22.0
26/02:30am 4.7 -4.7 4.6 99 0.0 W 43 61 23 33 1011.9 1011.5 22.0
26/02:04am 4.7 -5.2 4.6 99 0.0 W 46 67 25 36 1012.0 1011.7 21.2
26/02:00am 4.6 -6.1 4.5 99 0.0 W 50 67 27 36 1012.1 1011.8 21.2
26/01:40am 4.7 -4.7 4.6 99 0.0 WNW 43 69 23 37 1012.0 1011.7 21.0
26/01:30am 4.6 -4.4 4.5 99 0.0 W 41 57 22 31 1012.4 1012.1 20.2
26/01:00am 4.5 -4.5 4.4 99 0.0 WNW 41 63 22 34 1012.3 1012.0 19.0
26/12:30am 4.2 -5.3 4.1 99 0.0 W 43 61 23 33 1012.8 1012.5 17.8
26/12:00am 4.0 -6.1 3.9 99 0.0 WNW 46 67 25 36 1012.7 1012.3 16.6
 
Date/Time
EDT
Temp
°C
App
Temp
°C
Dew
Point
Rel
Hum
%
Delta-T
°C
Wind Press
QNH
hPa
Press
MSL
hPa
Rain
since 9 am
mm
Dir
 
Spd
km/h
Gust
km/h
Spd
kts
Gust
kts
25/11:45pm 4.0 -4.4 3.9 99 0.0 WNW 37 56 20 30 1013.1 1012.8 16.2
25/11:30pm 3.8 -5.9 3.7 99 0.0 W 44 59 24 32 1013.0 1012.7 15.4
25/11:00pm 3.7 -5.9 3.6 99 0.0 W 43 63 23 34 1013.1 1012.8 14.2
25/10:30pm 3.4 -4.7 3.3 99 0.0 WNW 35 54 19 29 1013.4 1013.1 13.0
25/10:10pm 3.4 -4.3 3.3 99 0.0 W 33 52 18 28 1013.4 1013.1 12.2
25/10:00pm 3.3 -4.4 3.2 99 0.0 WNW 33 46 18 25 1013.3 1013.0 11.8
25/09:50pm 3.1 -4.7 3.0 99 0.0 WNW 33 54 18 29 1013.3 1013.0 11.6
25/09:30pm 3.0 -6.3 2.9 99 0.0 W 41 56 22 30 1013.3 1013.0 11.4
25/09:02pm 2.7 -5.1 2.6 99 0.0 W 33 52 18 28 1013.1 1012.8 11.4
25/09:00pm 2.6 -5.3 2.5 99 0.0 W 33 50 18 27 1013.2 1012.9 11.2
25/08:42pm 2.8 -5.4 2.7 99 0.0 W 35 54 19 29 1013.1 1012.8 11.2
25/08:30pm 2.8 -5.0 2.7 99 0.0 W 33 48 18 26 1013.3 1013.0 10.8
25/08:00pm 2.7 -5.5 2.6 99 0.0 W 35 50 19 27 1013.1 1012.8 10.6
25/07:56pm 2.7 -4.6 2.6 99 0.0 W 30 50 16 27 1013.0 1012.7 10.6
25/07:30pm 2.6 -6.0 2.5 99 0.0 W 37 50 20 27 1013.1 1012.8 9.8
25/07:09pm 2.5 -5.4 2.4 99 0.0 W 33 54 18 29 1012.7 1012.3 9.4
25/07:00pm 2.9 -5.3 2.8 99 0.0 W 35 44 19 24 1012.5 1012.2 8.8
25/06:30pm 2.6 -7.2 2.5 99 0.0 W 43 59 23 32 1012.1 1011.8 8.2
25/06:14pm 2.9 -4.9 2.8 99 0.0 W 33 52 18 28 1012.2 1011.9 8.0
25/06:00pm 2.9 -5.3 2.8 99 0.0 W 35 54 19 29 1012.0 1011.7 7.6
25/05:30pm 2.8 -7.9 2.7 99 0.0 W 48 67 26 36 1011.8 1011.4 7.4
25/05:12pm 2.9 -7.0 2.8 99 0.0 W 44 63 24 34 1012.0 1011.7 7.2
25/05:00pm 2.9 -7.4 2.8 99 0.0 W 46 61 25 33 1011.9 1011.5 7.0
25/04:35pm 2.9 -7.0 2.8 99 0.0 W 44 65 24 35 1011.9 1011.5 7.0
25/04:30pm 2.9 -7.8 2.8 99 0.0 W 48 65 26 35 1011.8 1011.4 7.0
25/04:00pm 2.9 -8.1 2.8 99 0.0 W 50 69 27 37 1011.5 1011.2 6.4
25/03:39pm 3.4 -6.8 3.3 99 0.0 W 46 65 25 35 1011.4 1011.1 6.0
25/03:30pm 3.3 -7.3 3.2 99 0.0 W 48 59 26 32 1011.4 1011.1 6.0
25/03:00pm 3.6 -6.2 3.5 99 0.0 W 44 65 24 35 1011.4 1011.1 6.0
25/02:30pm 3.4 -6.2 3.3 99 0.0 W 43 70 23 38 1010.9 1010.5 4.8
25/02:00pm 3.9 -6.6 3.8 99 0.0 W 48 70 26 38 1011.2 1010.9 4.2
25/01:30pm 3.7 -7.2 3.6 99 0.0 W 50 69 27 37 1010.5 1010.2 4.2
25/01:27pm 4.1 -6.0 4.0 99 0.0 W 46 65 25 35 1010.6 1010.3 4.0
25/01:00pm 4.5 -2.4 4.4 99 0.0 W 30 46 16 25 1010.6 1010.3 2.6
25/12:31pm 4.5 -4.1 4.4 99 0.0 W 39 59 21 32 1010.3 1009.9 1.8
25/12:30pm 4.6 -4.4 4.5 99 0.0 W 41 59 22 32 1010.3 1009.9 1.8
25/12:03pm 4.0 -5.5 3.9 99 0.0 W 43 63 23 34 1010.1 1009.7 1.8
25/12:00pm 3.8 -6.3 3.7 99 0.0 W 46 61 25 33 1010.2 1009.8 1.6
25/11:51am 4.0 -5.1 3.9 99 0.0 WSW 41 61 22 33 1010.0 1009.6 1.6
25/11:30am 3.5 -5.0 3.4 99 0.0 WSW 37 52 20 28 1010.0 1009.6 1.4
25/11:04am 3.4 -5.1 3.3 99 0.0 WSW 37 59 20 32 1009.8 1009.4 1.2
25/11:00am 3.4 -5.1 3.3 99 0.0 WSW 37 52 20 28 1010.0 1009.6 1.0
25/10:45am 3.3 -4.2 3.2 99 0.0 WSW 32 50 17 27 1009.8 1009.4 1.0
25/10:30am 3.4 -4.3 3.3 99 0.0 WSW 33 50 18 27 1009.9 1009.5 0.6
25/10:16am 3.0 -4.6 2.9 99 0.0 WSW 32 52 17 28 1009.8 1009.4 0.6
25/10:00am 3.5 -5.0 3.4 99 0.0 WSW 37 52 20 28 1009.6 1009.3 0.2
25/09:30am 2.9 -7.8 2.8 99 0.0 WSW 48 63 26 34 1009.1 1008.7 0.2
25/09:00am 2.3 -6.4 2.2 99 0.0 WSW 37 54 20 29 1008.8 1008.3 41.8
25/08:56am 2.3 -6.0 2.2 99 0.0 WSW 35 54 19 29 1008.8 1008.3 41.8
25/08:30am 2.6 -7.2 2.5 99 0.0 WSW 43 59 23 32 1008.3 1007.9 41.0
25/08:12am 2.1 -9.5 2.0 99 0.0 WSW 52 72 28 39 1007.7 1007.3 41.0
25/08:00am 2.3 -9.6 2.2 99 0.0 WSW 54 69 29 37 1007.6 1007.2 41.0
25/07:30am 2.5 -8.2 2.4 99 0.0 SW 48 69 26 37 1007.0 1006.5 41.0
25/07:21am 2.4 -8.0 2.3 99 0.0 SW 46 67 25 36 1006.9 1006.4 41.0
25/07:00am 2.2 -8.6 2.1 99 0.0 SW 48 67 26 36 1006.7 1006.3 41.0
25/06:40am 2.1 -8.3 2.0 99 0.0 WSW 46 67 25 36 1006.3 1005.8 40.4
25/06:30am 2.6 -8.5 2.5 99 0.0 WSW 50 65 27 35 1006.5 1006.1 40.0
25/06:00am 2.5 -7.5 2.4 99 0.0 WSW 44 63 24 34 1006.1 1005.6 40.0
25/05:35am 1.5 -9.4 1.4 99 0.0 WSW 48 74 26 40 1005.4 1004.9 39.2
25/05:30am 2.7 -8.0 2.6 99 0.0 WSW 48 65 26 35 1005.5 1005.0 38.2
25/05:00am 2.4 -8.3 2.3 99 0.0 WSW 48 72 26 39 1004.7 1004.2 37.0
25/04:56am 2.6 -7.2 2.5 99 0.0 WSW 43 63 23 34 1004.8 1004.3 37.0
25/04:51am 2.8 -6.9 2.7 99 0.0 WSW 43 52 23 28 1005.3 1004.8 37.0
25/04:30am 2.4 -10.8 2.3 99 0.0 WSW 61 80 33 43 1004.5 1004.0 36.8
25/04:29am 2.4 -10.8 2.3 99 0.0 WSW 61 80 33 43 1004.7 1004.2 36.8
25/04:26am 2.8 -6.2 2.7 99 0.0 WSW 39 59 21 32 1005.1 1004.6 36.8
25/04:00am 2.4 -8.7 2.3 99 0.0 WSW 50 65 27 35 1004.7 1004.2 35.4
25/03:44am 2.6 -7.7 2.5 99 0.0 W 46 65 25 35 1004.7 1004.2 34.0
25/03:30am 1.6 -8.9 1.5 99 0.0 WSW 46 65 25 35 1004.2 1003.6 32.8
25/03:26am 2.4 -7.0 2.3 99 0.0 SW 41 57 22 31 1004.7 1004.2 32.2
25/03:00am 3.2 -7.4 3.1 99 0.0 W 48 67 26 36 1004.2 1003.6 30.2
25/02:33am 2.9 -7.4 2.8 99 0.0 WSW 46 67 25 36 1004.3 1003.8 30.0
25/02:30am 3.0 -6.7 2.9 99 0.0 WSW 43 61 23 33 1004.5 1004.0 30.0
25/02:00am 3.0 -9.2 2.9 99 0.0 W 56 76 30 41 1004.2 1003.6 29.8
25/01:57am 3.0 -9.2 2.9 99 0.0 WSW 56 76 30 41 1004.2 1003.6 29.8
25/01:56am 3.0 -9.2 2.9 99 0.0 WSW 56 70 30 38 1004.2 1003.6 29.8
25/01:30am 3.1 -5.0 3.0 99 0.0 WNW 35 70 19 38 1004.4 1003.9 27.0
25/01:00am 2.7 -6.3 2.6 99 0.0 WNW 39 61 21 33 1004.5 1004.0 26.8
25/12:59am 2.7 -6.3 2.6 99 0.0 W 39 57 21 31 1004.5 1004.0 26.8
25/12:30am 2.1 -7.4 2.0 99 0.0 W 41 56 22 30 1004.7 1004.2 26.6
25/12:24am 2.6 -8.1 2.5 99 0.0 W 48 69 26 37 1005.0 1004.4 26.2
25/12:20am 2.4 -10.1 2.3 99 0.0 W 57 69 31 37 1004.6 1004.1 26.0
25/12:00am 2.7 -5.5 2.6 99 0.0 WNW 35 61 19 33 1005.0 1004.4 25.6
 
Date/Time
EDT
Temp
°C
App
Temp
°C
Dew
Point
Rel
Hum
%
Delta-T
°C
Wind Press
QNH
hPa
Press
MSL
hPa
Rain
since 9 am
mm
Dir
 
Spd
km/h
Gust
km/h
Spd
kts
Gust
kts
24/11:37pm 3.0 -5.9 2.9 99 0.0 W 39 61 21 33 1005.0 1004.4 25.4
24/11:30pm 3.0 -5.2 2.9 99 0.0 W 35 50 19 27 1005.1 1004.6 25.2
24/11:09pm 2.9 -4.9 2.8 99 0.0 W 33 59 18 32 1005.0 1004.4 25.0
24/11:00pm 3.0 -4.8 2.9 99 0.0 WNW 33 44 18 24 1005.3 1004.8 24.8
24/10:53pm 2.9 -5.7 2.8 99 0.0 W 37 56 20 30 1005.3 1004.8 24.6
24/10:30pm 3.0 -5.5 2.9 99 0.0 W 37 52 20 28 1005.6 1005.1 24.4
24/10:25pm 2.8 -6.2 2.7 99 0.0 W 39 57 21 31 1005.5 1005.0 24.4
24/10:17pm 3.1 -6.2 3.0 99 0.0 W 41 57 22 31 1005.3 1004.8 24.4
24/10:01pm 3.2 -4.4 3.1 99 0.0 NW 32 52 17 28 1005.2 1004.7 24.4
24/10:00pm 3.2 -3.6 3.1 99 0.0 NNW 28 46 15 25 1005.3 1004.8 24.4
24/09:31pm 3.0 -4.8 2.9 99 0.0 W 33 54 18 29 1005.2 1004.7 24.2
24/09:30pm 3.0 -4.6 2.9 99 0.0 W 32 50 17 27 1005.3 1004.8 24.2

Other Formats:

Comma delimited format used in spreadsheet applications
http://www.bom.gov.au/fwo/IDT60801/IDT60801.95952.axf

JavaScript Object Notation format (JSON) in row-major order
http://www.bom.gov.au/fwo/IDT60801/IDT60801.95952.json